createdAt,value
2017-11-08T00:00:16.231Z,938.4
2017-11-08T00:01:24.314Z,938.4
2017-11-08T00:02:32.400Z,938.4
2017-11-08T00:03:40.486Z,938.4
2017-11-08T00:04:48.709Z,938.4
2017-11-08T00:05:56.660Z,938.4
2017-11-08T00:07:04.745Z,938.4
2017-11-08T00:08:12.829Z,938.3
2017-11-08T00:09:21.111Z,938.3
2017-11-08T00:10:29.134Z,938.3
2017-11-08T00:11:37.137Z,938.4
2017-11-08T00:12:45.177Z,938.4
2017-11-08T00:13:53.262Z,938.3
2017-11-08T00:15:01.345Z,938.3
2017-11-08T00:16:09.490Z,938.3
2017-11-08T00:17:17.521Z,938.4
2017-11-08T00:18:25.608Z,938.3
2017-11-08T00:19:33.813Z,938.4
2017-11-08T00:20:41.784Z,938.4
2017-11-08T00:21:49.938Z,938.3
2017-11-08T00:22:57.975Z,938.3
2017-11-08T00:24:06.250Z,938.3
2017-11-08T00:25:14.149Z,938.3
2017-11-08T00:26:22.357Z,938.3
2017-11-08T00:27:30.380Z,938.4
2017-11-08T00:28:38.420Z,938.4
2017-11-08T00:29:46.512Z,938.4
2017-11-08T00:30:54.592Z,938.4
2017-11-08T00:32:02.811Z,938.5
2017-11-08T00:33:10.941Z,938.4
2017-11-08T00:34:18.874Z,938.4
2017-11-08T00:35:26.941Z,938.4
2017-11-08T00:36:35.028Z,938.4
2017-11-08T00:37:43.182Z,938.4
2017-11-08T00:38:51.257Z,938.4
2017-11-08T00:39:59.306Z,938.4
2017-11-08T00:41:07.378Z,938.4
2017-11-08T00:42:15.574Z,938.4
2017-11-08T00:43:23.548Z,938.4
2017-11-08T00:44:31.807Z,938.4
2017-11-08T00:45:39.768Z,938.4
2017-11-08T00:46:47.879Z,938.4
2017-11-08T00:47:55.944Z,938.4
2017-11-08T00:49:04.030Z,938.4
2017-11-08T00:50:12.173Z,938.4
2017-11-08T00:51:20.210Z,938.4
2017-11-08T00:52:28.290Z,938.5
2017-11-08T00:53:36.377Z,938.4
2017-11-08T00:54:44.466Z,938.5
2017-11-08T00:55:52.690Z,938.4
2017-11-08T00:57:00.638Z,938.5
2017-11-08T00:58:08.849Z,938.5
2017-11-08T00:59:16.821Z,938.5
2017-11-08T01:00:25.021Z,938.5
2017-11-08T01:01:33.139Z,938.5
2017-11-08T01:02:41.167Z,938.5
2017-11-08T01:03:49.257Z,938.4
2017-11-08T01:04:57.446Z,938.5
2017-11-08T01:06:06.670Z,938.4
2017-11-08T01:07:14.812Z,938.4
2017-11-08T01:08:22.863Z,938.4
2017-11-08T01:09:30.954Z,938.4
2017-11-08T01:10:39.037Z,938.4
2017-11-08T01:11:47.128Z,938.4
2017-11-08T01:12:55.422Z,938.4
2017-11-08T01:14:03.546Z,938.3
2017-11-08T01:15:11.392Z,938.4
2017-11-08T01:16:19.479Z,938.4
2017-11-08T01:17:27.574Z,938.4
2017-11-08T01:18:35.725Z,938.4
2017-11-08T01:19:43.750Z,938.3
2017-11-08T01:20:51.837Z,938.4
2017-11-08T01:22:00.084Z,938.3
2017-11-08T01:23:08.115Z,938.3
2017-11-08T01:24:16.156Z,938.3
2017-11-08T01:25:24.184Z,938.3
2017-11-08T01:26:32.348Z,938.4
2017-11-08T01:27:40.372Z,938.3
2017-11-08T01:28:48.447Z,938.3
2017-11-08T01:29:56.653Z,938.3
2017-11-08T01:31:04.628Z,938.3
2017-11-08T01:32:12.709Z,938.3
2017-11-08T01:33:20.796Z,938.2
2017-11-08T01:34:28.883Z,938.3
2017-11-08T01:35:37.027Z,938.3
2017-11-08T01:36:45.060Z,938.3
2017-11-08T01:37:53.143Z,938.3
2017-11-08T01:39:01.231Z,938.3
2017-11-08T01:40:09.318Z,938.3
2017-11-08T01:41:17.544Z,938.3
2017-11-08T01:42:25.537Z,938.3
2017-11-08T01:43:33.599Z,938.4
2017-11-08T01:44:41.687Z,938.3
2017-11-08T01:45:50.058Z,938.3
2017-11-08T01:46:57.984Z,938.3
2017-11-08T01:48:05.949Z,938.3
2017-11-08T01:49:14.037Z,938.3
2017-11-08T01:50:22.121Z,938.3
2017-11-08T01:51:30.210Z,938.3
2017-11-08T01:52:38.353Z,938.4
2017-11-08T01:53:46.392Z,938.4
2017-11-08T01:54:54.472Z,938.4
2017-11-08T01:56:02.562Z,938.4
2017-11-08T01:57:10.658Z,938.4
2017-11-08T01:58:18.798Z,938.4
2017-11-08T01:59:26.828Z,938.4
2017-11-08T02:00:34.914Z,938.4
2017-11-08T02:01:43.123Z,938.4
2017-11-08T02:02:51.091Z,938.5
2017-11-08T02:03:59.243Z,938.4
2017-11-08T02:05:07.263Z,938.5
2017-11-08T02:06:15.361Z,938.5
2017-11-08T02:07:23.447Z,938.5
2017-11-08T02:08:31.535Z,938.5
2017-11-08T02:09:39.678Z,938.5
2017-11-08T02:10:47.710Z,938.5
2017-11-08T02:11:55.806Z,938.5
2017-11-08T02:13:03.898Z,938.5
2017-11-08T02:14:11.969Z,938.5
2017-11-08T02:15:20.184Z,938.5
2017-11-08T02:16:28.144Z,938.5
2017-11-08T02:17:36.364Z,938.5
2017-11-08T02:18:44.318Z,938.5
2017-11-08T02:19:52.410Z,938.5
2017-11-08T02:21:00.550Z,938.4
2017-11-08T02:22:08.584Z,938.5
2017-11-08T02:23:16.840Z,938.5
2017-11-08T02:24:24.925Z,938.4
2017-11-08T02:25:33.013Z,938.4
2017-11-08T02:26:41.312Z,938.4
2017-11-08T02:27:49.184Z,938.4
2017-11-08T02:28:57.282Z,938.4
2017-11-08T02:30:05.583Z,938.4
2017-11-08T02:31:13.587Z,938.4
2017-11-08T02:32:21.653Z,938.4
2017-11-08T02:33:29.742Z,938.4
2017-11-08T02:34:37.813Z,938.3
2017-11-08T02:35:45.829Z,938.3
2017-11-08T02:36:53.888Z,938.3
2017-11-08T02:38:02.034Z,938.3
2017-11-08T02:39:10.063Z,938.3
2017-11-08T02:40:18.183Z,938.3
2017-11-08T02:41:26.244Z,938.3
2017-11-08T02:42:34.328Z,938.3
2017-11-08T02:43:42.473Z,938.3
2017-11-08T02:44:50.504Z,938.3
2017-11-08T02:45:58.589Z,938.4
2017-11-08T02:47:06.677Z,938.3
2017-11-08T02:48:14.765Z,938.4
2017-11-08T02:49:22.999Z,938.4
2017-11-08T02:50:30.940Z,938.4
2017-11-08T02:51:39.026Z,938.4
2017-11-08T02:52:47.113Z,938.4
2017-11-08T02:53:55.349Z,938.4
2017-11-08T02:55:03.347Z,938.4
2017-11-08T02:56:11.371Z,938.4
2017-11-08T02:57:19.465Z,938.4
2017-11-08T02:58:27.571Z,938.4
2017-11-08T02:59:35.635Z,938.4
2017-11-08T03:00:43.777Z,938.4
2017-11-08T03:01:51.883Z,938.4
2017-11-08T03:03:00.032Z,938.4
2017-11-08T03:04:07.980Z,938.4
2017-11-08T03:05:16.315Z,938.4
2017-11-08T03:06:24.212Z,938.5
2017-11-08T03:07:32.244Z,938.5
2017-11-08T03:08:40.406Z,938.5
2017-11-08T03:09:48.417Z,938.4
2017-11-08T03:10:56.507Z,938.5
2017-11-08T03:12:04.653Z,938.5
2017-11-08T03:13:12.688Z,938.5
2017-11-08T03:14:20.776Z,938.4
2017-11-08T03:15:28.862Z,938.4
2017-11-08T03:16:37.149Z,938.5
2017-11-08T03:17:45.096Z,938.5
2017-11-08T03:18:53.125Z,938.5
2017-11-08T03:20:01.210Z,938.4
2017-11-08T03:21:09.438Z,938.5
2017-11-08T03:22:17.384Z,938.5
2017-11-08T03:23:25.528Z,938.4
2017-11-08T03:24:33.560Z,938.4
2017-11-08T03:25:41.646Z,938.5
2017-11-08T03:26:49.745Z,938.5
2017-11-08T03:27:57.837Z,938.5
2017-11-08T03:29:06.043Z,938.5
2017-11-08T03:30:14.004Z,938.5
2017-11-08T03:31:22.116Z,938.5
2017-11-08T03:32:30.178Z,938.5
2017-11-08T03:33:38.265Z,938.5
2017-11-08T03:34:46.408Z,938.5
2017-11-08T03:35:54.438Z,938.5
2017-11-08T03:37:02.582Z,938.5
2017-11-08T03:38:10.614Z,938.5
2017-11-08T03:39:18.698Z,938.6
2017-11-08T03:40:26.946Z,938.6
2017-11-08T03:41:34.873Z,938.5
2017-11-08T03:42:42.969Z,938.5
2017-11-08T03:43:51.049Z,938.5
2017-11-08T03:44:59.177Z,938.5
2017-11-08T03:46:07.343Z,938.5
2017-11-08T03:47:15.308Z,938.5
2017-11-08T03:48:23.400Z,938.5
2017-11-08T03:49:31.502Z,938.5
2017-11-08T03:50:39.568Z,938.5
2017-11-08T03:51:47.709Z,938.5
2017-11-08T03:52:55.796Z,938.5
2017-11-08T03:54:03.848Z,938.5
2017-11-08T03:55:11.917Z,938.5
2017-11-08T03:56:20.004Z,938.5
2017-11-08T03:57:28.212Z,938.6
2017-11-08T03:58:36.175Z,938.5
2017-11-08T03:59:44.308Z,938.6
2017-11-08T04:00:52.396Z,938.5
2017-11-08T04:02:00.482Z,938.6
2017-11-08T04:03:08.689Z,938.6
2017-11-08T04:04:16.654Z,938.6
2017-11-08T04:05:24.748Z,938.6
2017-11-08T04:06:32.829Z,938.6
2017-11-08T04:07:41.000Z,938.6
2017-11-08T04:08:49.123Z,938.6
2017-11-08T04:09:57.088Z,938.6
2017-11-08T04:11:05.175Z,938.6
2017-11-08T04:12:13.405Z,938.6
2017-11-08T04:13:21.352Z,938.6
2017-11-08T04:14:29.494Z,938.6
2017-11-08T04:15:37.523Z,938.6
2017-11-08T04:16:45.686Z,938.6
2017-11-08T04:17:53.695Z,938.6
2017-11-08T04:19:01.781Z,938.6
2017-11-08T04:20:09.989Z,938.6
2017-11-08T04:21:18.117Z,938.6
2017-11-08T04:22:26.042Z,938.6
2017-11-08T04:23:34.132Z,938.6
2017-11-08T04:24:42.272Z,938.6
2017-11-08T04:25:50.427Z,938.6
2017-11-08T04:26:58.389Z,938.6
2017-11-08T04:28:06.476Z,938.6
2017-11-08T04:29:14.567Z,938.6
2017-11-08T04:30:22.648Z,938.6
2017-11-08T04:31:30.792Z,938.6
2017-11-08T04:32:38.822Z,938.6
2017-11-08T04:33:46.911Z,938.6
2017-11-08T04:34:55.130Z,938.6
2017-11-08T04:36:03.085Z,938.6
2017-11-08T04:37:11.226Z,938.6
2017-11-08T04:38:19.254Z,938.6
2017-11-08T04:39:27.550Z,938.6
2017-11-08T04:40:35.688Z,938.6
2017-11-08T04:41:43.730Z,938.6
2017-11-08T04:42:51.940Z,938.6
2017-11-08T04:43:59.902Z,938.6
2017-11-08T04:45:07.990Z,938.6
2017-11-08T04:46:16.076Z,938.6
2017-11-08T04:47:24.161Z,938.6
2017-11-08T04:48:32.337Z,938.6
2017-11-08T04:49:40.334Z,938.6
2017-11-08T04:50:48.421Z,938.6
2017-11-08T04:51:56.509Z,938.6
2017-11-08T04:53:04.595Z,938.7
2017-11-08T04:54:12.742Z,938.7
2017-11-08T04:55:20.767Z,938.7
2017-11-08T04:56:28.975Z,938.7
2017-11-08T04:57:36.983Z,938.8
2017-11-08T04:58:45.024Z,938.8
2017-11-08T04:59:53.167Z,938.8
2017-11-08T05:01:01.197Z,938.8
2017-11-08T05:02:09.423Z,938.8
2017-11-08T05:03:17.371Z,938.8
2017-11-08T05:04:25.456Z,938.8
2017-11-08T05:05:33.599Z,938.8
2017-11-08T05:06:41.664Z,938.8
2017-11-08T05:07:49.712Z,938.8
2017-11-08T05:08:57.823Z,938.9
2017-11-08T05:10:05.904Z,938.8
2017-11-08T05:11:14.100Z,938.8
2017-11-08T05:12:22.120Z,938.8
2017-11-08T05:13:30.153Z,938.8
2017-11-08T05:14:38.238Z,938.8
2017-11-08T05:15:46.324Z,938.8
2017-11-08T05:16:54.463Z,938.8
2017-11-08T05:18:02.492Z,938.8
2017-11-08T05:19:10.581Z,938.8
2017-11-08T05:20:18.670Z,938.8
2017-11-08T05:21:26.753Z,938.8
2017-11-08T05:22:34.896Z,938.8
2017-11-08T05:23:42.926Z,938.9
2017-11-08T05:24:51.014Z,938.9
2017-11-08T05:25:59.096Z,938.9
2017-11-08T05:27:07.183Z,938.9
2017-11-08T05:28:15.390Z,938.9
2017-11-08T05:29:23.355Z,939.0
2017-11-08T05:30:31.441Z,939.0
2017-11-08T05:31:39.532Z,939.0
2017-11-08T05:32:47.617Z,939.0
2017-11-08T05:33:55.756Z,939.0
2017-11-08T05:35:03.977Z,939.0
2017-11-08T05:36:11.870Z,939.0
2017-11-08T05:37:19.955Z,939.0
2017-11-08T05:38:28.041Z,939.0
2017-11-08T05:39:36.280Z,939.0
2017-11-08T05:40:44.215Z,939.0
2017-11-08T05:41:52.300Z,939.0
2017-11-08T05:43:00.388Z,939.0
2017-11-08T05:44:08.604Z,939.0
2017-11-08T05:45:16.687Z,939.0
2017-11-08T05:46:24.644Z,939.0
2017-11-08T05:47:32.727Z,939.0
2017-11-08T05:48:41.009Z,939.0
2017-11-08T05:49:48.898Z,939.0
2017-11-08T05:50:57.042Z,939.1
2017-11-08T05:52:05.071Z,939.1
2017-11-08T05:53:13.158Z,939.1
2017-11-08T05:54:21.245Z,939.1
2017-11-08T05:55:29.330Z,939.1
2017-11-08T05:56:37.469Z,939.1
2017-11-08T05:57:45.688Z,939.1
2017-11-08T05:58:53.587Z,939.1
2017-11-08T06:00:01.791Z,939.1
2017-11-08T06:01:09.760Z,939.2
2017-11-08T06:02:18.087Z,939.2
2017-11-08T06:03:25.934Z,939.2
2017-11-08T06:04:34.018Z,939.2
2017-11-08T06:05:42.113Z,939.1
2017-11-08T06:06:50.398Z,939.1
2017-11-08T06:07:58.346Z,939.2
2017-11-08T06:09:06.370Z,939.2
2017-11-08T06:10:14.457Z,939.2
2017-11-08T06:11:22.542Z,939.2
2017-11-08T06:12:30.628Z,939.2
2017-11-08T06:13:38.779Z,939.2
2017-11-08T06:14:46.961Z,939.2
2017-11-08T06:15:56.389Z,939.2
2017-11-08T06:17:02.970Z,939.2
2017-11-08T06:18:11.056Z,939.2
2017-11-08T06:19:19.392Z,939.2
2017-11-08T06:20:27.432Z,939.2
2017-11-08T06:21:35.312Z,939.2
2017-11-08T06:22:43.399Z,939.3
2017-11-08T06:23:51.482Z,939.3
2017-11-08T06:24:59.689Z,939.3
2017-11-08T06:26:07.657Z,939.3
2017-11-08T06:27:15.743Z,939.3
2017-11-08T06:28:23.825Z,939.3
2017-11-08T06:29:31.910Z,939.3
2017-11-08T06:30:40.171Z,939.3
2017-11-08T06:31:48.146Z,939.3
2017-11-08T06:32:56.172Z,939.3
2017-11-08T06:34:04.259Z,939.4
2017-11-08T06:35:12.344Z,939.4
2017-11-08T06:36:20.549Z,939.3
2017-11-08T06:37:28.515Z,939.4
2017-11-08T06:38:36.691Z,939.4
2017-11-08T06:39:44.686Z,939.4
2017-11-08T06:40:52.770Z,939.4
2017-11-08T06:42:01.109Z,939.4
2017-11-08T06:43:08.942Z,939.5
2017-11-08T06:44:17.156Z,939.5
2017-11-08T06:45:25.118Z,939.5
2017-11-08T06:46:33.204Z,939.5
2017-11-08T06:47:41.420Z,939.5
2017-11-08T06:48:49.521Z,939.6
2017-11-08T06:49:57.490Z,939.6
2017-11-08T06:51:05.565Z,939.6
2017-11-08T06:52:13.651Z,939.6
2017-11-08T06:53:21.923Z,939.6
2017-11-08T06:54:29.821Z,939.6
2017-11-08T06:55:37.906Z,939.7
2017-11-08T06:56:45.992Z,939.7
2017-11-08T06:57:54.215Z,939.7
2017-11-08T06:59:02.284Z,939.7
2017-11-08T07:00:10.248Z,939.7
2017-11-08T07:01:18.338Z,939.7
2017-11-08T07:02:26.567Z,939.7
2017-11-08T07:03:34.569Z,939.7
2017-11-08T07:04:42.650Z,939.7
2017-11-08T07:05:50.677Z,939.7
2017-11-08T07:06:58.762Z,939.7
2017-11-08T07:08:06.846Z,939.7
2017-11-08T07:09:14.932Z,939.7
2017-11-08T07:10:23.074Z,939.7
2017-11-08T07:11:31.105Z,939.7
2017-11-08T07:12:39.292Z,939.7
2017-11-08T07:13:47.275Z,939.7
2017-11-08T07:14:55.361Z,939.7
2017-11-08T07:16:03.650Z,939.8
2017-11-08T07:17:11.539Z,939.8
2017-11-08T07:18:19.612Z,939.8
2017-11-08T07:19:27.821Z,939.8
2017-11-08T07:20:35.949Z,939.8
2017-11-08T07:21:43.927Z,939.8
2017-11-08T07:22:51.961Z,939.8
2017-11-08T07:24:00.040Z,939.8
2017-11-08T07:25:08.304Z,939.8
2017-11-08T07:26:16.213Z,939.8
2017-11-08T07:27:24.362Z,939.9
2017-11-08T07:28:32.391Z,939.8
2017-11-08T07:29:40.644Z,939.9
2017-11-08T07:30:48.561Z,939.9
2017-11-08T07:31:56.645Z,939.9
2017-11-08T07:33:04.857Z,939.9
2017-11-08T07:34:12.815Z,939.9
2017-11-08T07:35:20.957Z,939.9
2017-11-08T07:36:28.989Z,939.9
2017-11-08T07:37:37.070Z,939.9
2017-11-08T07:38:45.292Z,939.9
2017-11-08T07:39:53.364Z,939.9
2017-11-08T07:41:01.362Z,939.9
2017-11-08T07:42:09.451Z,939.9
2017-11-08T07:43:17.533Z,939.9
2017-11-08T07:44:25.677Z,940.0
2017-11-08T07:45:33.703Z,940.0
2017-11-08T07:46:41.786Z,940.0
2017-11-08T07:47:49.870Z,940.0
2017-11-08T07:48:57.956Z,940.0
2017-11-08T07:50:06.107Z,940.0
2017-11-08T07:51:14.249Z,940.0
2017-11-08T07:52:22.212Z,940.0
2017-11-08T07:53:30.483Z,940.1
2017-11-08T07:54:38.384Z,940.1
2017-11-08T07:55:46.523Z,940.1
2017-11-08T07:56:54.551Z,940.1
2017-11-08T07:58:02.824Z,940.1
2017-11-08T07:59:10.739Z,940.1
2017-11-08T08:00:18.814Z,940.1
2017-11-08T08:01:26.956Z,940.1
2017-11-08T08:02:35.080Z,940.1
2017-11-08T08:03:43.067Z,940.1
2017-11-08T08:04:51.156Z,940.1
2017-11-08T08:05:59.237Z,940.1
2017-11-08T08:07:07.917Z,940.1
2017-11-08T08:08:15.455Z,940.1
2017-11-08T08:09:23.494Z,940.1
2017-11-08T08:10:31.578Z,940.1
2017-11-08T08:11:39.666Z,940.1
2017-11-08T08:12:47.870Z,940.1
2017-11-08T08:13:55.831Z,940.1
2017-11-08T08:15:03.916Z,940.2
2017-11-08T08:16:12.123Z,940.2
2017-11-08T08:17:20.136Z,940.2
2017-11-08T08:18:28.227Z,940.2
2017-11-08T08:19:36.255Z,940.2
2017-11-08T08:20:44.348Z,940.2
2017-11-08T08:21:52.479Z,940.2
2017-11-08T08:23:00.641Z,940.2
2017-11-08T08:24:08.715Z,940.2
2017-11-08T08:25:16.679Z,940.2
2017-11-08T08:26:24.840Z,940.2
2017-11-08T08:27:32.858Z,940.3
2017-11-08T08:28:40.952Z,940.2
2017-11-08T08:29:49.085Z,940.3
2017-11-08T08:30:57.113Z,940.2
2017-11-08T08:32:05.198Z,940.2
2017-11-08T08:33:13.279Z,940.3
2017-11-08T08:34:21.367Z,940.3
2017-11-08T08:35:29.718Z,940.2
2017-11-08T08:36:37.534Z,940.3
2017-11-08T08:37:45.631Z,940.2
2017-11-08T08:38:53.771Z,940.2
2017-11-08T08:40:01.847Z,940.2
2017-11-08T08:41:09.940Z,940.2
2017-11-08T08:42:17.971Z,940.2
2017-11-08T08:43:26.055Z,940.3
2017-11-08T08:44:34.194Z,940.2
2017-11-08T08:45:42.223Z,940.3
2017-11-08T08:46:50.558Z,940.3
2017-11-08T08:47:58.394Z,940.3
2017-11-08T08:49:06.562Z,940.4
2017-11-08T08:50:14.564Z,940.4
2017-11-08T08:51:22.645Z,940.4
2017-11-08T08:52:30.788Z,940.4
2017-11-08T08:53:38.890Z,940.3
2017-11-08T08:54:47.026Z,940.3
2017-11-08T08:55:54.991Z,940.3
2017-11-08T08:57:03.073Z,940.4
2017-11-08T08:58:11.394Z,940.3
2017-11-08T08:59:19.376Z,940.3
2017-11-08T09:00:27.370Z,940.3
2017-11-08T09:01:35.452Z,940.3
2017-11-08T09:02:43.582Z,940.3
2017-11-08T09:03:51.748Z,940.3
2017-11-08T09:04:59.706Z,940.4
2017-11-08T09:06:07.796Z,940.4
2017-11-08T09:07:16.012Z,940.3
2017-11-08T09:08:23.959Z,940.4
2017-11-08T09:09:32.101Z,940.4
2017-11-08T09:10:40.191Z,940.4
2017-11-08T09:11:48.213Z,940.4
2017-11-08T09:12:56.389Z,940.4
2017-11-08T09:14:04.383Z,940.4
2017-11-08T09:15:12.609Z,940.4
2017-11-08T09:16:20.552Z,940.4
2017-11-08T09:17:28.636Z,940.4
2017-11-08T09:18:36.723Z,940.4
2017-11-08T09:19:44.813Z,940.4
2017-11-08T09:20:52.946Z,940.4
2017-11-08T09:22:01.074Z,940.4
2017-11-08T09:23:09.062Z,940.4
2017-11-08T09:24:17.145Z,940.4
2017-11-08T09:25:25.230Z,940.4
2017-11-08T09:26:33.372Z,940.4
2017-11-08T09:27:41.403Z,940.4
2017-11-08T09:28:49.485Z,940.4
2017-11-08T09:29:57.568Z,940.5
2017-11-08T09:31:05.653Z,940.5
2017-11-08T09:32:13.859Z,940.5
2017-11-08T09:33:21.824Z,940.5
2017-11-08T09:34:29.907Z,940.5
2017-11-08T09:35:38.088Z,940.5
2017-11-08T09:36:46.077Z,940.5
2017-11-08T09:37:54.218Z,940.5
2017-11-08T09:39:02.248Z,940.5
2017-11-08T09:40:10.360Z,940.4
2017-11-08T09:41:18.421Z,940.5
2017-11-08T09:42:26.630Z,940.5
2017-11-08T09:43:34.653Z,940.5
2017-11-08T09:44:42.674Z,940.5
2017-11-08T09:45:50.759Z,940.5
2017-11-08T09:46:58.842Z,940.5
2017-11-08T09:48:06.926Z,940.6
2017-11-08T09:49:15.180Z,940.5
2017-11-08T09:50:23.106Z,940.5
2017-11-08T09:51:31.192Z,940.5
2017-11-08T09:52:39.273Z,940.5
2017-11-08T09:53:47.361Z,940.5
2017-11-08T09:54:55.614Z,940.5
2017-11-08T09:56:03.539Z,940.5
2017-11-08T09:57:11.630Z,940.5
2017-11-08T09:58:19.768Z,940.5
2017-11-08T09:59:27.825Z,940.5
2017-11-08T10:00:35.957Z,940.5
2017-11-08T10:01:43.991Z,940.5
2017-11-08T10:02:52.079Z,940.5
2017-11-08T10:04:00.214Z,940.5
2017-11-08T10:05:08.299Z,940.5
2017-11-08T10:06:16.441Z,940.5
2017-11-08T10:07:24.480Z,940.5
2017-11-08T10:08:32.558Z,940.5
2017-11-08T10:09:40.637Z,940.5
2017-11-08T10:10:48.728Z,940.5
2017-11-08T10:11:56.873Z,940.5
2017-11-08T10:13:04.925Z,940.5
2017-11-08T10:14:13.109Z,940.4
2017-11-08T10:15:21.073Z,940.5
2017-11-08T10:16:29.171Z,940.5
2017-11-08T10:17:37.303Z,940.5
2017-11-08T10:18:45.325Z,940.5
2017-11-08T10:19:53.413Z,940.5
2017-11-08T10:21:01.498Z,940.5
2017-11-08T10:22:09.599Z,940.5
2017-11-08T10:23:17.734Z,940.5
2017-11-08T10:24:25.762Z,940.5
2017-11-08T10:25:33.851Z,940.5
2017-11-08T10:26:41.935Z,940.5
2017-11-08T10:27:50.020Z,940.5
2017-11-08T10:28:58.167Z,940.5
2017-11-08T10:30:06.317Z,940.5
2017-11-08T10:31:14.279Z,940.5
2017-11-08T10:32:22.364Z,940.5
2017-11-08T10:33:30.447Z,940.5
2017-11-08T10:34:38.624Z,940.5
2017-11-08T10:35:46.648Z,940.5
2017-11-08T10:36:54.741Z,940.5
2017-11-08T10:38:02.825Z,940.5
2017-11-08T10:39:11.073Z,940.5
2017-11-08T10:40:19.051Z,940.5
2017-11-08T10:41:27.087Z,940.5
2017-11-08T10:42:35.134Z,940.5
2017-11-08T10:43:43.220Z,940.5
2017-11-08T10:44:51.312Z,940.5
2017-11-08T10:45:59.445Z,940.6
2017-11-08T10:47:07.471Z,940.6
2017-11-08T10:48:15.624Z,940.5
2017-11-08T10:49:23.650Z,940.6
2017-11-08T10:50:31.731Z,940.5
2017-11-08T10:51:39.867Z,940.6
2017-11-08T10:52:47.894Z,940.5
2017-11-08T10:53:56.105Z,940.5
2017-11-08T10:55:04.151Z,940.5
2017-11-08T10:56:12.149Z,940.5
2017-11-08T10:57:20.485Z,940.6
2017-11-08T10:58:28.450Z,940.5
2017-11-08T10:59:36.405Z,940.5
2017-11-08T11:00:44.488Z,940.5
2017-11-08T11:01:52.626Z,940.5
2017-11-08T11:03:00.905Z,940.5
2017-11-08T11:04:08.736Z,940.5
2017-11-08T11:05:16.824Z,940.5
2017-11-08T11:06:24.906Z,940.5
2017-11-08T11:07:32.991Z,940.5
2017-11-08T11:08:41.197Z,940.5
2017-11-08T11:09:49.164Z,940.6
2017-11-08T11:10:57.245Z,940.6
2017-11-08T11:12:05.340Z,940.6
2017-11-08T11:13:13.424Z,940.6
2017-11-08T11:14:21.565Z,940.6
2017-11-08T11:15:29.599Z,940.6
2017-11-08T11:16:37.680Z,940.6
2017-11-08T11:17:45.819Z,940.6
2017-11-08T11:18:53.861Z,940.6
2017-11-08T11:20:02.370Z,940.6
2017-11-08T11:21:10.177Z,940.6
2017-11-08T11:22:18.101Z,940.6
2017-11-08T11:23:26.323Z,940.6
2017-11-08T11:24:34.276Z,940.6
2017-11-08T11:25:42.626Z,940.6
2017-11-08T11:26:50.452Z,940.6
2017-11-08T11:27:58.544Z,940.6
2017-11-08T11:29:06.628Z,940.6
2017-11-08T11:30:14.719Z,940.6
2017-11-08T11:31:22.865Z,940.6
2017-11-08T11:32:30.891Z,940.6
2017-11-08T11:33:39.033Z,940.6
2017-11-08T11:34:47.073Z,940.6
2017-11-08T11:35:55.161Z,940.6
2017-11-08T11:37:03.287Z,940.6
2017-11-08T11:38:11.319Z,940.5
2017-11-08T11:39:19.564Z,940.5
2017-11-08T11:40:27.485Z,940.5
2017-11-08T11:41:35.577Z,940.5
2017-11-08T11:42:43.725Z,940.6
2017-11-08T11:43:51.736Z,940.5
2017-11-08T11:44:59.936Z,940.5
2017-11-08T11:46:08.062Z,940.5
2017-11-08T11:47:15.994Z,940.5
2017-11-08T11:48:24.134Z,940.5
2017-11-08T11:49:32.343Z,940.5
2017-11-08T11:50:40.246Z,940.5
2017-11-08T11:51:48.337Z,940.5
2017-11-08T11:52:56.456Z,940.5
2017-11-08T11:54:04.738Z,940.6
2017-11-08T11:55:12.627Z,940.5
2017-11-08T11:56:20.708Z,940.5
2017-11-08T11:57:28.803Z,940.5
2017-11-08T11:58:37.060Z,940.5
2017-11-08T11:59:45.092Z,940.5
2017-11-08T12:00:53.057Z,940.5
2017-11-08T12:02:01.173Z,940.5
2017-11-08T12:03:09.266Z,940.5
2017-11-08T12:04:17.338Z,940.5
2017-11-08T12:05:25.543Z,940.5
2017-11-08T12:06:33.508Z,940.5
2017-11-08T12:07:41.660Z,940.5
2017-11-08T12:08:49.872Z,940.5
2017-11-08T12:09:57.760Z,940.5
2017-11-08T12:11:05.968Z,940.5
2017-11-08T12:12:14.063Z,940.5
2017-11-08T12:13:22.146Z,940.5
2017-11-08T12:14:30.234Z,940.5
2017-11-08T12:15:38.319Z,940.5
2017-11-08T12:16:46.607Z,940.5
2017-11-08T12:17:54.488Z,940.5
2017-11-08T12:19:02.572Z,940.5
2017-11-08T12:20:10.657Z,940.5
2017-11-08T12:21:18.808Z,940.6
2017-11-08T12:22:26.913Z,940.6
2017-11-08T12:23:34.942Z,940.6
2017-11-08T12:24:43.023Z,940.6
2017-11-08T12:25:51.107Z,940.6
2017-11-08T12:26:59.193Z,940.6
2017-11-08T12:28:07.337Z,940.6
2017-11-08T12:29:15.365Z,940.6
2017-11-08T12:30:23.587Z,940.7
2017-11-08T12:31:31.533Z,940.6
2017-11-08T12:32:39.616Z,940.7
2017-11-08T12:33:47.753Z,940.7
2017-11-08T12:34:55.933Z,940.7
2017-11-08T12:36:03.863Z,940.7
2017-11-08T12:37:12.068Z,940.7
2017-11-08T12:38:20.047Z,940.7
2017-11-08T12:39:28.175Z,940.7
2017-11-08T12:40:36.207Z,940.7
2017-11-08T12:41:44.290Z,940.8
2017-11-08T12:42:52.374Z,940.7
2017-11-08T12:44:00.456Z,940.7
2017-11-08T12:45:08.661Z,940.8
2017-11-08T12:46:16.630Z,940.8
2017-11-08T12:47:24.710Z,940.8
2017-11-08T12:48:32.797Z,940.8
2017-11-08T12:49:40.879Z,940.8
2017-11-08T12:50:49.082Z,940.8
2017-11-08T12:51:57.044Z,940.8
2017-11-08T12:53:05.187Z,940.9
2017-11-08T12:54:13.214Z,940.9
2017-11-08T12:55:21.298Z,940.9
2017-11-08T12:56:29.438Z,940.9
2017-11-08T12:57:37.469Z,940.9
2017-11-08T12:58:45.549Z,940.9
2017-11-08T12:59:53.637Z,940.9
2017-11-08T13:01:01.720Z,940.9
2017-11-08T13:02:09.862Z,941.0
2017-11-08T13:03:17.886Z,941.0
2017-11-08T13:04:25.973Z,941.0
2017-11-08T13:05:34.054Z,941.0
2017-11-08T13:06:42.139Z,941.0
2017-11-08T13:07:50.654Z,941.0
2017-11-08T13:08:58.427Z,941.0
2017-11-08T13:10:06.528Z,941.0
2017-11-08T13:11:14.476Z,941.0
2017-11-08T13:12:22.560Z,941.0
2017-11-08T13:13:30.735Z,941.0
2017-11-08T13:14:38.757Z,941.0
2017-11-08T13:15:46.835Z,941.0
2017-11-08T13:16:54.919Z,941.0
2017-11-08T13:18:03.045Z,941.0
2017-11-08T13:19:11.143Z,941.0
2017-11-08T13:20:19.171Z,941.0
2017-11-08T13:21:27.255Z,941.0
2017-11-08T13:22:35.339Z,941.0
2017-11-08T13:23:43.422Z,941.1
2017-11-08T13:24:51.561Z,941.0
2017-11-08T13:25:59.591Z,941.1
2017-11-08T13:27:07.676Z,941.1
2017-11-08T13:28:15.759Z,941.1
2017-11-08T13:29:23.842Z,941.1
2017-11-08T13:30:32.053Z,941.0
2017-11-08T13:31:40.081Z,941.1
2017-11-08T13:32:48.097Z,941.1
2017-11-08T13:33:56.187Z,941.0
2017-11-08T13:35:04.266Z,941.0
2017-11-08T13:36:12.405Z,941.0
2017-11-08T13:37:20.441Z,941.0
2017-11-08T13:38:28.526Z,941.0
2017-11-08T13:39:36.613Z,941.0
2017-11-08T13:40:44.752Z,941.0
2017-11-08T13:41:52.837Z,941.1
2017-11-08T13:43:00.862Z,941.1
2017-11-08T13:44:08.947Z,941.1
2017-11-08T13:45:17.037Z,941.1
2017-11-08T13:46:25.111Z,941.2
2017-11-08T13:47:33.259Z,941.1
2017-11-08T13:48:41.281Z,941.2
2017-11-08T13:49:49.486Z,941.2
2017-11-08T13:50:57.527Z,941.2
2017-11-08T13:52:05.535Z,941.2
2017-11-08T13:53:13.735Z,941.2
2017-11-08T13:54:21.699Z,941.2
2017-11-08T13:55:29.862Z,941.2
2017-11-08T13:56:38.099Z,941.2
2017-11-08T13:57:45.951Z,941.2
2017-11-08T13:58:54.157Z,941.2
2017-11-08T14:00:02.209Z,941.1
2017-11-08T14:01:10.204Z,941.2
2017-11-08T14:02:18.404Z,941.2
2017-11-08T14:03:26.483Z,941.2
2017-11-08T14:04:34.628Z,941.2
2017-11-08T14:05:42.660Z,941.2
2017-11-08T14:06:50.739Z,941.2
2017-11-08T14:07:58.834Z,941.3
2017-11-08T14:09:06.917Z,941.2
2017-11-08T14:10:15.074Z,941.2
2017-11-08T14:11:23.084Z,941.3
2017-11-08T14:12:31.232Z,941.2
2017-11-08T14:13:39.428Z,941.3
2017-11-08T14:14:47.346Z,941.2
2017-11-08T14:15:55.550Z,941.2
2017-11-08T14:17:03.513Z,941.2
2017-11-08T14:18:11.596Z,941.3
2017-11-08T14:19:19.682Z,941.2
2017-11-08T14:20:27.764Z,941.2
2017-11-08T14:21:35.914Z,941.2
2017-11-08T14:22:43.935Z,941.3
2017-11-08T14:23:52.015Z,941.3
2017-11-08T14:25:00.097Z,941.3
2017-11-08T14:26:08.190Z,941.3
2017-11-08T14:27:16.324Z,941.3
2017-11-08T14:28:24.407Z,941.3
2017-11-08T14:29:32.434Z,941.3
2017-11-08T14:30:40.519Z,941.3
2017-11-08T14:31:48.627Z,941.3
2017-11-08T14:32:56.738Z,941.3
2017-11-08T14:34:04.765Z,941.3
2017-11-08T14:35:13.032Z,941.3
2017-11-08T14:36:20.952Z,941.3